createdAt,value
2022-10-22T00:02:29.445Z,9.30
2022-10-22T00:05:31.109Z,7.78
2022-10-22T00:08:32.811Z,8.93
2022-10-22T00:11:34.444Z,8.10
2022-10-22T00:14:36.049Z,8.10
2022-10-22T00:17:37.886Z,8.23
2022-10-22T00:20:39.657Z,8.90
2022-10-22T00:23:42.521Z,10.13
2022-10-22T00:26:44.177Z,7.57
2022-10-22T00:29:45.739Z,11.50
2022-10-22T00:32:47.280Z,9.82
2022-10-22T00:35:48.793Z,9.23
2022-10-22T00:38:50.588Z,9.48
2022-10-22T00:41:53.541Z,9.00
2022-10-22T00:45:22.904Z,8.52
2022-10-22T00:48:27.464Z,7.03
2022-10-22T00:51:32.059Z,6.15
2022-10-22T00:54:34.596Z,8.02
2022-10-22T00:57:36.888Z,7.93
2022-10-22T01:00:39.010Z,10.48
2022-10-22T01:03:40.872Z,8.68
2022-10-22T01:06:42.518Z,6.65
2022-10-22T01:09:59.980Z,7.47
2022-10-22T01:13:30.639Z,7.60
2022-10-22T01:16:45.839Z,6.38
2022-10-22T01:19:57.844Z,7.35
2022-10-22T01:23:24.177Z,6.85
2022-10-22T01:26:43.930Z,7.82
2022-10-22T01:29:53.512Z,6.53
2022-10-22T01:33:01.068Z,8.05
2022-10-22T01:36:04.631Z,7.25
2022-10-22T01:39:08.694Z,6.65
2022-10-22T01:42:12.799Z,7.60
2022-10-22T01:45:15.093Z,7.85
2022-10-22T01:48:35.045Z,7.57
2022-10-22T01:51:57.817Z,8.07
2022-10-22T01:54:59.290Z,7.03
2022-10-22T01:58:19.609Z,7.05
2022-10-22T02:01:32.642Z,5.78
2022-10-22T02:04:39.314Z,7.25
2022-10-22T02:07:50.888Z,9.82
2022-10-22T02:10:53.220Z,8.47
2022-10-22T02:13:58.613Z,9.98
2022-10-22T02:17:01.239Z,9.73
2022-10-22T02:20:16.256Z,10.10
2022-10-22T02:23:17.873Z,8.57
2022-10-22T02:26:30.749Z,7.85
2022-10-22T02:29:40.832Z,7.80
2022-10-22T02:32:57.908Z,7.57
2022-10-22T02:36:02.416Z,7.57
2022-10-22T02:39:06.638Z,9.00
2022-10-22T02:42:09.732Z,6.75
2022-10-22T02:45:11.379Z,7.50
2022-10-22T02:48:13.012Z,5.75
2022-10-22T02:51:15.126Z,6.30
2022-10-22T02:54:16.724Z,6.63
2022-10-22T02:57:18.436Z,8.35
2022-10-22T03:00:21.177Z,8.18
2022-10-22T03:03:22.953Z,8.23
2022-10-22T03:09:30.964Z,7.55
2022-10-22T03:12:32.512Z,6.10
2022-10-22T03:15:34.067Z,9.15
2022-10-22T03:18:35.856Z,7.88
2022-10-22T03:21:53.088Z,7.15
2022-10-22T03:24:58.432Z,7.50
2022-10-22T03:28:07.448Z,7.28
2022-10-22T03:31:09.480Z,8.00
2022-10-22T03:34:13.361Z,7.53
2022-10-22T03:37:14.994Z,6.07
2022-10-22T03:40:17.101Z,6.47
2022-10-22T03:43:18.750Z,8.15
2022-10-22T03:46:20.478Z,5.72
2022-10-22T03:49:22.032Z,5.40
2022-10-22T03:52:23.571Z,6.75
2022-10-22T03:55:25.555Z,5.57
2022-10-22T03:58:27.089Z,6.00
2022-10-22T04:01:30.432Z,6.53
2022-10-22T04:04:32.016Z,4.95
2022-10-22T04:07:33.544Z,6.57
2022-10-22T04:10:35.563Z,5.47
2022-10-22T04:13:37.929Z,6.47
2022-10-22T04:16:41.105Z,5.35
2022-10-22T04:19:42.613Z,5.22
2022-10-22T04:22:44.173Z,5.75
2022-10-22T04:25:45.723Z,7.00
2022-10-22T04:28:48.690Z,6.50
2022-10-22T04:31:50.233Z,6.43
2022-10-22T04:34:51.758Z,5.93
2022-10-22T04:37:54.909Z,5.10
2022-10-22T04:40:56.464Z,4.88
2022-10-22T04:43:58.801Z,5.13
2022-10-22T04:47:00.504Z,5.32
2022-10-22T04:50:02.016Z,4.30
2022-10-22T04:53:03.544Z,5.15
2022-10-22T04:56:16.848Z,5.18
2022-10-22T04:59:18.384Z,4.25
2022-10-22T05:02:19.900Z,4.10
2022-10-22T05:05:21.497Z,5.10
2022-10-22T05:08:23.001Z,4.65
2022-10-22T05:11:28.381Z,4.63
2022-10-22T05:14:30.005Z,4.53
2022-10-22T05:17:31.518Z,4.20
2022-10-22T05:20:33.045Z,3.67
2022-10-22T05:23:34.604Z,5.70
2022-10-22T05:26:36.160Z,3.83
2022-10-22T05:29:37.807Z,5.68
2022-10-22T05:32:39.330Z,4.10
2022-10-22T05:35:43.210Z,4.15
2022-10-22T05:38:48.513Z,4.20
2022-10-22T05:41:50.049Z,3.97
2022-10-22T05:44:51.635Z,5.60
2022-10-22T05:47:53.177Z,7.78
2022-10-22T05:50:54.758Z,5.60
2022-10-22T05:53:58.699Z,4.70
2022-10-22T05:57:00.340Z,5.35
2022-10-22T06:00:02.181Z,4.63
2022-10-22T06:03:06.135Z,5.13
2022-10-22T06:06:44.458Z,4.50
2022-10-22T06:09:47.686Z,4.45
2022-10-22T06:12:49.621Z,3.97
2022-10-22T06:15:53.492Z,3.87
2022-10-22T06:18:55.011Z,3.30
2022-10-22T06:21:56.641Z,3.95
2022-10-22T06:24:58.164Z,4.30
2022-10-22T06:27:59.752Z,3.93
2022-10-22T06:31:02.225Z,5.20
2022-10-22T06:34:11.003Z,4.68
2022-10-22T06:37:13.858Z,7.10
2022-10-22T06:40:16.397Z,5.47
2022-10-22T06:43:17.923Z,5.97
2022-10-22T06:46:21.186Z,5.70
2022-10-22T06:49:22.702Z,5.82
2022-10-22T06:52:24.522Z,6.50
2022-10-22T06:55:29.217Z,4.43
2022-10-22T06:58:30.746Z,4.93
2022-10-22T07:01:34.286Z,4.57
2022-10-22T07:04:36.343Z,4.22
2022-10-22T07:07:37.878Z,4.40
2022-10-22T07:10:39.522Z,4.72
2022-10-22T07:13:41.566Z,5.05
2022-10-22T07:16:43.379Z,4.47
2022-10-22T07:19:48.397Z,5.10
2022-10-22T07:22:52.727Z,4.78
2022-10-22T07:29:01.221Z,5.28
2022-10-22T07:32:02.827Z,6.13
2022-10-22T07:35:04.901Z,4.32
2022-10-22T07:38:08.045Z,5.60
2022-10-22T07:41:10.627Z,4.73
2022-10-22T07:44:12.154Z,4.50
2022-10-22T07:47:13.706Z,5.55
2022-10-22T07:50:16.529Z,5.18
2022-10-22T07:53:18.622Z,4.43
2022-10-22T07:56:20.269Z,3.97
2022-10-22T07:59:21.857Z,4.53
2022-10-22T08:02:23.677Z,5.25
2022-10-22T08:05:25.386Z,5.90
2022-10-22T08:08:30.464Z,5.25
2022-10-22T08:11:33.549Z,5.80
2022-10-22T08:14:35.663Z,6.80
2022-10-22T08:17:37.245Z,5.80
2022-10-22T08:20:38.881Z,4.83
2022-10-22T08:23:40.582Z,4.25
2022-10-22T08:26:42.502Z,4.47
2022-10-22T08:29:44.110Z,5.40
2022-10-22T08:32:46.065Z,4.20
2022-10-22T08:35:49.673Z,3.70
2022-10-22T08:38:51.205Z,3.65
2022-10-22T08:42:06.242Z,3.67
2022-10-22T08:45:26.170Z,4.38
2022-10-22T08:48:48.238Z,3.97
2022-10-22T08:51:50.980Z,3.00
2022-10-22T08:54:56.088Z,4.18
2022-10-22T08:58:16.095Z,4.97
2022-10-22T09:01:34.016Z,4.18
2022-10-22T09:04:50.227Z,7.07
2022-10-22T09:07:53.164Z,4.53
2022-10-22T09:11:03.595Z,5.20
2022-10-22T09:14:06.253Z,6.18
2022-10-22T09:17:13.399Z,5.47
2022-10-22T09:20:28.519Z,6.28
2022-10-22T09:23:58.651Z,4.45
2022-10-22T09:27:01.002Z,4.55
2022-10-22T09:30:02.718Z,4.65
2022-10-22T09:33:10.017Z,3.57
2022-10-22T09:36:21.327Z,5.53
2022-10-22T09:39:26.699Z,5.22
2022-10-22T09:42:28.250Z,6.55
2022-10-22T09:45:32.105Z,5.07
2022-10-22T09:48:41.451Z,6.07
2022-10-22T09:51:56.644Z,5.20
2022-10-22T09:55:02.713Z,4.35
2022-10-22T09:58:04.826Z,4.17
2022-10-22T10:01:06.382Z,5.15
2022-10-22T10:04:10.888Z,3.55
2022-10-22T10:07:21.366Z,5.45
2022-10-22T10:10:35.159Z,4.10
2022-10-22T10:14:04.776Z,3.63
2022-10-22T10:17:19.928Z,4.32
2022-10-22T10:20:46.983Z,3.22
2022-10-22T10:23:59.394Z,5.68
2022-10-22T10:27:20.378Z,3.83
2022-10-22T10:30:24.097Z,4.63
2022-10-22T10:33:57.713Z,3.90
2022-10-22T10:37:13.351Z,3.72
2022-10-22T10:40:26.395Z,4.70
2022-10-22T10:43:53.822Z,3.50
2022-10-22T10:47:33.919Z,3.47
2022-10-22T10:51:17.490Z,3.75
2022-10-22T10:54:46.670Z,4.03
2022-10-22T10:58:15.846Z,4.00
2022-10-22T11:01:23.458Z,4.80
2022-10-22T11:04:37.112Z,5.25
2022-10-22T11:07:55.954Z,4.00
2022-10-22T11:11:07.956Z,3.67
2022-10-22T11:14:13.527Z,5.03
2022-10-22T11:17:18.036Z,4.27
2022-10-22T11:20:25.554Z,4.55
2022-10-22T11:23:36.999Z,4.85
2022-10-22T11:26:44.800Z,4.60
2022-10-22T11:29:54.070Z,4.80
2022-10-22T11:33:02.019Z,4.37
2022-10-22T11:36:06.963Z,4.57
2022-10-22T11:39:29.185Z,4.60
2022-10-22T11:42:37.337Z,4.68
2022-10-22T11:45:43.004Z,5.38
2022-10-22T11:48:44.634Z,4.30
2022-10-22T11:51:47.362Z,4.13
2022-10-22T11:54:48.930Z,4.82
2022-10-22T11:57:50.488Z,5.50
2022-10-22T12:00:52.411Z,6.55
2022-10-22T12:04:22.018Z,3.93
2022-10-22T12:07:33.685Z,5.32
2022-10-22T12:11:05.767Z,4.00
2022-10-22T12:14:29.529Z,4.25
2022-10-22T12:17:31.264Z,5.18
2022-10-22T12:20:32.781Z,7.30
2022-10-22T12:23:35.526Z,4.15
2022-10-22T12:26:37.306Z,4.00
2022-10-22T12:29:38.838Z,5.18
2022-10-22T12:32:41.583Z,3.65
2022-10-22T12:35:45.414Z,3.90
2022-10-22T12:38:47.674Z,4.38
2022-10-22T12:41:49.334Z,5.28
2022-10-22T12:44:55.841Z,4.00
2022-10-22T12:48:08.666Z,5.05
2022-10-22T12:51:16.301Z,3.63
2022-10-22T12:54:32.060Z,7.43
2022-10-22T12:57:33.636Z,5.78
2022-10-22T13:00:36.137Z,5.38
2022-10-22T13:03:43.445Z,4.57
2022-10-22T13:06:47.517Z,5.53
2022-10-22T13:09:58.994Z,6.25
2022-10-22T13:13:03.322Z,5.40
2022-10-22T13:16:34.166Z,5.05
2022-10-22T13:20:01.618Z,4.95
2022-10-22T13:23:18.688Z,4.77
2022-10-22T13:26:20.514Z,4.40
2022-10-22T13:29:24.138Z,4.60
2022-10-22T13:32:32.207Z,4.90
2022-10-22T13:35:38.346Z,5.97
2022-10-22T13:38:40.170Z,5.60
2022-10-22T13:41:41.724Z,4.80
2022-10-22T13:44:43.382Z,4.15
2022-10-22T13:47:49.413Z,6.82
2022-10-22T13:50:52.303Z,5.80
2022-10-22T13:53:54.243Z,6.37
2022-10-22T13:56:55.855Z,6.53
2022-10-22T13:59:57.371Z,5.80
2022-10-22T14:02:59.750Z,4.82
2022-10-22T14:06:01.466Z,5.50
2022-10-22T14:09:06.266Z,5.57
2022-10-22T14:12:13.608Z,5.75
2022-10-22T14:15:17.472Z,5.72
2022-10-22T14:18:28.949Z,6.28
2022-10-22T14:21:35.887Z,5.75
2022-10-22T14:24:37.402Z,4.07
2022-10-22T14:27:39.359Z,4.20
2022-10-22T14:30:41.401Z,5.28
2022-10-22T14:33:43.032Z,5.47
2022-10-22T14:36:44.703Z,4.82
2022-10-22T14:39:51.651Z,6.40
2022-10-22T14:42:53.233Z,6.72
2022-10-22T14:45:55.466Z,5.05
2022-10-22T14:48:56.985Z,5.75
2022-10-22T14:51:58.526Z,5.80
2022-10-22T14:55:00.053Z,3.77
2022-10-22T14:58:01.597Z,6.93
2022-10-22T15:01:03.717Z,5.18
2022-10-22T15:04:05.572Z,5.07
2022-10-22T15:07:07.239Z,5.50
2022-10-22T15:10:09.538Z,6.77
2022-10-22T15:13:11.141Z,5.65
2022-10-22T15:16:15.589Z,5.88
2022-10-22T15:19:17.144Z,6.68
2022-10-22T15:22:19.461Z,7.03
2022-10-22T15:25:21.046Z,6.27
2022-10-22T15:28:23.709Z,6.63
2022-10-22T15:31:49.195Z,6.45
2022-10-22T15:34:52.814Z,8.65
2022-10-22T15:37:54.347Z,6.28
2022-10-22T15:41:05.460Z,7.60
2022-10-22T15:44:08.698Z,7.93
2022-10-22T15:47:10.801Z,6.53
2022-10-22T15:50:12.329Z,8.27
2022-10-22T15:53:17.843Z,6.75
2022-10-22T15:56:19.638Z,6.13
2022-10-22T15:59:21.278Z,5.93
2022-10-22T16:02:22.799Z,5.90
2022-10-22T16:05:24.411Z,5.95
2022-10-22T16:08:26.558Z,5.05
2022-10-22T16:11:28.940Z,9.33
2022-10-22T16:14:30.541Z,5.80
2022-10-22T16:17:32.047Z,5.28
2022-10-22T16:20:39.110Z,7.30
2022-10-22T16:23:42.347Z,5.97
2022-10-22T16:26:44.104Z,7.60
2022-10-22T16:29:45.643Z,6.63
2022-10-22T16:32:47.482Z,8.60
2022-10-22T16:35:49.057Z,10.15
2022-10-22T16:38:50.899Z,9.95
2022-10-22T16:41:52.510Z,12.07
2022-10-22T16:48:23.949Z,8.18
2022-10-22T16:51:27.644Z,9.75
2022-10-22T16:54:29.329Z,8.48
2022-10-22T16:57:31.926Z,8.67
2022-10-22T17:00:33.885Z,10.60
2022-10-22T17:03:36.342Z,12.70
2022-10-22T17:06:37.935Z,11.63
2022-10-22T17:09:39.711Z,12.80
2022-10-22T17:12:41.844Z,11.57
2022-10-22T17:15:44.555Z,10.40
2022-10-22T17:21:53.723Z,12.00
2022-10-22T17:25:14.064Z,12.43
2022-10-22T17:28:15.595Z,10.90
2022-10-22T17:31:21.995Z,10.63
2022-10-22T17:34:23.524Z,11.68
2022-10-22T17:37:25.122Z,14.07
2022-10-22T17:40:27.036Z,17.20
2022-10-22T17:43:28.705Z,17.25
2022-10-22T17:46:31.927Z,18.23
2022-10-22T17:49:33.553Z,22.08
2022-10-22T17:52:35.718Z,15.33
2022-10-22T17:55:37.307Z,12.85
2022-10-22T17:58:39.038Z,10.23
2022-10-22T18:01:45.585Z,10.45
2022-10-22T18:04:50.716Z,9.52
2022-10-22T18:07:58.481Z,12.03
2022-10-22T18:11:00.260Z,9.00
2022-10-22T18:14:02.044Z,11.77
2022-10-22T18:17:03.679Z,12.43
2022-10-22T18:20:05.737Z,10.33
2022-10-22T18:23:07.457Z,11.93
2022-10-22T18:26:09.157Z,14.82
2022-10-22T18:29:14.894Z,14.20
2022-10-22T18:32:16.693Z,15.67
2022-10-22T18:35:18.246Z,16.33
2022-10-22T18:38:23.581Z,16.65
2022-10-22T18:41:26.439Z,20.48
2022-10-22T18:44:27.969Z,20.93
2022-10-22T18:47:29.453Z,17.70
2022-10-22T18:53:37.780Z,16.02
2022-10-22T18:56:40.716Z,14.95
2022-10-22T18:59:42.297Z,15.77
2022-10-22T19:02:44.119Z,20.60
2022-10-22T19:05:51.649Z,15.00
2022-10-22T19:08:53.248Z,21.02
2022-10-22T19:11:55.023Z,14.73
2022-10-22T19:14:56.549Z,15.30
2022-10-22T19:17:58.064Z,15.43
2022-10-22T19:21:01.391Z,18.33
2022-10-22T19:24:03.409Z,16.52
2022-10-22T19:27:05.018Z,16.40
2022-10-22T19:30:07.104Z,17.77
2022-10-22T19:33:09.615Z,18.15
2022-10-22T19:36:13.325Z,18.55
2022-10-22T19:39:16.453Z,20.38
2022-10-22T19:42:18.013Z,18.83
2022-10-22T19:45:19.599Z,18.20
2022-10-22T19:48:21.132Z,16.42
2022-10-22T19:51:27.030Z,19.15
2022-10-22T19:54:28.568Z,20.83
2022-10-22T19:57:30.202Z,20.50
2022-10-22T20:00:32.134Z,18.23
2022-10-22T20:03:36.207Z,20.52
2022-10-22T20:06:37.785Z,20.25
2022-10-22T20:09:39.320Z,17.83
2022-10-22T20:12:40.842Z,20.40
2022-10-22T20:15:42.604Z,17.13
2022-10-22T20:18:44.265Z,15.13
2022-10-22T20:21:48.362Z,15.63
2022-10-22T20:24:50.379Z,15.43
2022-10-22T20:27:51.925Z,13.83
2022-10-22T20:30:53.515Z,16.35
2022-10-22T20:33:59.651Z,12.10
2022-10-22T20:37:01.211Z,13.25
2022-10-22T20:40:02.923Z,14.10
2022-10-22T20:43:04.490Z,13.85
2022-10-22T20:46:06.143Z,13.75
2022-10-22T20:49:12.014Z,18.58
2022-10-22T20:52:13.680Z,15.97
2022-10-22T20:58:18.100Z,16.05
2022-10-22T21:01:22.172Z,16.25
2022-10-22T21:04:23.790Z,13.90
2022-10-22T21:07:25.440Z,15.35
2022-10-22T21:10:32.287Z,12.32
2022-10-22T21:13:35.171Z,12.43
2022-10-22T21:16:41.188Z,17.73
2022-10-22T21:19:42.776Z,15.95
2022-10-22T21:22:44.592Z,16.73
2022-10-22T21:25:54.757Z,17.60
2022-10-22T21:28:56.327Z,14.98
2022-10-22T21:31:57.842Z,13.20
2022-10-22T21:34:59.351Z,15.98
2022-10-22T21:38:00.902Z,15.63
2022-10-22T21:41:07.767Z,13.75
2022-10-22T21:44:09.355Z,17.00
2022-10-22T21:47:10.868Z,18.33
2022-10-22T21:50:12.409Z,16.58
2022-10-22T21:53:14.006Z,15.50
2022-10-22T21:56:21.939Z,18.00
2022-10-22T21:59:23.472Z,17.70
2022-10-22T22:02:27.396Z,17.92
2022-10-22T22:05:29.327Z,16.23
2022-10-22T22:08:32.551Z,16.10
2022-10-22T22:11:34.213Z,17.87
2022-10-22T22:14:35.758Z,16.48
2022-10-22T22:17:37.315Z,17.00
2022-10-22T22:20:38.845Z,16.75
2022-10-22T22:23:42.646Z,17.97
2022-10-22T22:26:44.218Z,18.90
2022-10-22T22:29:45.742Z,14.85
2022-10-22T22:32:47.290Z,16.45
2022-10-22T22:35:48.820Z,19.77
2022-10-22T22:38:54.098Z,17.08
2022-10-22T22:41:55.632Z,14.98
2022-10-22T22:44:57.943Z,16.27
2022-10-22T22:47:59.468Z,16.70
2022-10-22T22:51:05.661Z,17.33
2022-10-22T22:54:07.245Z,15.90
2022-10-22T22:57:08.807Z,18.27
2022-10-22T23:00:11.041Z,14.15
2022-10-22T23:03:12.571Z,15.00
2022-10-22T23:06:14.641Z,17.37
2022-10-22T23:09:17.633Z,16.95
2022-10-22T23:12:19.230Z,18.40
2022-10-22T23:15:20.775Z,16.75
2022-10-22T23:18:22.299Z,16.27
2022-10-22T23:21:27.660Z,16.67
2022-10-22T23:24:29.938Z,15.73
2022-10-22T23:27:31.459Z,15.18
2022-10-22T23:30:33.016Z,16.50
2022-10-22T23:33:34.924Z,16.98
2022-10-22T23:36:38.106Z,15.75
2022-10-22T23:39:39.642Z,16.07
2022-10-22T23:42:44.754Z,15.32
2022-10-22T23:45:46.284Z,18.10
2022-10-22T23:48:47.886Z,14.57
2022-10-22T23:51:49.435Z,13.00
2022-10-22T23:54:50.962Z,14.63
2022-10-22T23:57:52.512Z,16.45
